Time;durP1;ratioP1;P1;durP2;ratioP2;P2;SDS_P1;SDS_P2;PMS_P1;PMS_P2;Temp;Humidity;BMP_temperature;BMP_pressure;BME280_temperature;BME280_humidity;BME280_pressure;Samples;Min_cycle;Max_cycle;Signal;HPM_P1;HPM_P2
2024/04/14 00:01:06;;;;;;;;;16.33;16.00;;;;;;;;5502242;25;43779;-75
2024/04/14 00:03:31;;;;;;;;;18.00;16.67;;;;;;;;5502566;25;43948;-75
2024/04/14 00:05:56;;;;;;;;;17.67;15.00;;;;;;;;5502938;25;43909;-75
2024/04/14 00:08:21;;;;;;;;;17.00;17.00;;;;;;;;5502767;25;43747;-76
2024/04/14 00:10:47;;;;;;;;;15.33;15.33;;;;;;;;5502433;25;44140;-75
2024/04/14 00:13:12;;;;;;;;;16.67;15.00;;;;;;;;5502313;25;44026;-75
2024/04/14 00:15:38;;;;;;;;;18.67;17.33;;;;;;;;5502562;25;43783;-75
2024/04/14 00:18:03;;;;;;;;;15.33;15.33;;;;;;;;5502314;25;43902;-75
2024/04/14 00:20:28;;;;;;;;;16.00;16.00;;;;;;;;5502280;25;43884;-75
2024/04/14 00:22:53;;;;;;;;;17.00;16.00;;;;;;;;5502254;25;45005;-75
2024/04/14 00:25:18;;;;;;;;;16.33;16.33;;;;;;;;5502382;25;44027;-75
2024/04/14 00:27:44;;;;;;;;;17.00;15.67;;;;;;;;5502469;25;44106;-75
2024/04/14 00:30:09;;;;;;;;;15.00;14.33;;;;;;;;5502479;25;43906;-75
2024/04/14 00:32:34;;;;;;;;;17.00;15.67;;;;;;;;5502294;25;43927;-76
2024/04/14 00:34:59;;;;;;;;;14.67;14.67;;;;;;;;5502149;25;43831;-75
2024/04/14 00:37:25;;;;;;;;;12.00;12.00;;;;;;;;5502145;25;43898;-76
2024/04/14 00:39:50;;;;;;;;;11.00;10.33;;;;;;;;5501957;25;43921;-76
2024/04/14 00:42:15;;;;;;;;;13.33;11.33;;;;;;;;5502297;25;44035;-75
2024/04/14 00:44:41;;;;;;;;;11.33;11.00;;;;;;;;5501958;25;43933;-75
2024/04/14 00:47:06;;;;;;;;;12.33;12.00;;;;;;;;5501778;25;44132;-74
2024/04/14 00:49:32;;;;;;;;;10.67;10.00;;;;;;;;5501861;25;44067;-75
2024/04/14 00:52:00;;;;;;;;;10.00;9.33;;;;;;;;5501790;25;44211;-75
2024/04/14 00:54:25;;;;;;;;;12.00;11.00;;;;;;;;5501700;25;43776;-75
2024/04/14 00:56:50;;;;;;;;;13.00;11.00;;;;;;;;5501276;25;43750;-75
2024/04/14 00:59:16;;;;;;;;;13.67;13.00;;;;;;;;5502107;25;43714;-75
2024/04/14 01:01:41;;;;;;;;;11.67;10.67;;;;;;;;5501960;25;43892;-74
2024/04/14 01:04:09;;;;;;;;;8.33;7.33;;;;;;;;5502074;25;44010;-75
2024/04/14 01:06:35;;;;;;;;;10.33;9.00;;;;;;;;5501957;25;43840;-75
2024/04/14 01:09:03;;;;;;;;;8.67;8.67;;;;;;;;5501525;25;43761;-74
2024/04/14 01:11:28;;;;;;;;;7.33;7.33;;;;;;;;5501314;25;43905;-74
2024/04/14 01:13:53;;;;;;;;;7.33;7.00;;;;;;;;5501283;25;43748;-75
2024/04/14 01:16:18;;;;;;;;;7.00;7.00;;;;;;;;5501534;25;43840;-76
2024/04/14 01:18:44;;;;;;;;;8.00;8.00;;;;;;;;5500979;25;43789;-75
2024/04/14 01:21:09;;;;;;;;;5.67;5.67;;;;;;;;5501007;25;43881;-75
2024/04/14 01:23:34;;;;;;;;;6.67;6.67;;;;;;;;5501162;25;43849;-76
2024/04/14 01:26:00;;;;;;;;;9.00;9.00;;;;;;;;5501294;25;43893;-75
2024/04/14 01:28:25;;;;;;;;;4.33;3.67;;;;;;;;5500931;25;43769;-76
2024/04/14 01:30:50;;;;;;;;;7.00;7.00;;;;;;;;5502716;25;43785;-75
2024/04/14 01:33:15;;;;;;;;;8.00;6.67;;;;;;;;5504233;25;44000;-75
2024/04/14 01:35:41;;;;;;;;;7.00;6.33;;;;;;;;5504460;25;44009;-75
2024/04/14 01:38:06;;;;;;;;;3.67;3.67;;;;;;;;5504403;25;43931;-75
2024/04/14 01:40:31;;;;;;;;;5.67;5.00;;;;;;;;5504194;25;44922;-75
2024/04/14 01:42:56;;;;;;;;;7.00;5.00;;;;;;;;5504406;25;43833;-75
2024/04/14 01:45:21;;;;;;;;;5.00;5.00;;;;;;;;5504542;25;43946;-75
2024/04/14 01:47:46;;;;;;;;;1.00;1.00;;;;;;;;5503979;25;43865;-76
2024/04/14 01:50:12;;;;;;;;;4.33;4.33;;;;;;;;5504019;25;43912;-75
2024/04/14 01:52:37;;;;;;;;;3.00;3.00;;;;;;;;5504222;25;43887;-75
2024/04/14 01:55:03;;;;;;;;;2.00;1.00;;;;;;;;5504252;25;43824;-75
2024/04/14 01:57:28;;;;;;;;;3.00;2.00;;;;;;;;5503986;25;44070;-76
2024/04/14 01:59:53;;;;;;;;;6.67;5.67;;;;;;;;5503692;25;44710;-75
2024/04/14 02:02:18;;;;;;;;;4.33;2.00;;;;;;;;5502835;25;44019;-76
2024/04/14 02:04:44;;;;;;;;;2.67;2.67;;;;;;;;5503599;25;44079;-75
2024/04/14 02:07:09;;;;;;;;;2.67;2.67;;;;;;;;5503908;25;43940;-75
2024/04/14 02:09:34;;;;;;;;;4.00;4.00;;;;;;;;5503960;25;43973;-75
2024/04/14 02:11:59;;;;;;;;;2.00;2.00;;;;;;;;5504030;25;44010;-75
2024/04/14 02:14:24;;;;;;;;;4.00;3.00;;;;;;;;5504121;25;43741;-74
2024/04/14 02:16:49;;;;;;;;;4.67;3.67;;;;;;;;5503522;25;43948;-75
2024/04/14 02:19:15;;;;;;;;;2.00;2.00;;;;;;;;5503890;25;43900;-75
2024/04/14 02:21:41;;;;;;;;;3.67;3.00;;;;;;;;5504056;25;43944;-75
2024/04/14 02:24:07;;;;;;;;;3.33;3.33;;;;;;;;5504125;25;43979;-75
2024/04/14 02:26:32;;;;;;;;;2.00;2.00;;;;;;;;5503737;25;43812;-76
2024/04/14 02:28:57;;;;;;;;;2.00;2.00;;;;;;;;5503808;25;43904;-76
2024/04/14 02:31:22;;;;;;;;;3.00;3.00;;;;;;;;5504157;25;43972;-75
2024/04/14 02:33:47;;;;;;;;;2.67;2.67;;;;;;;;5504074;25;43749;-75
2024/04/14 02:36:12;;;;;;;;;2.00;2.00;;;;;;;;5503709;25;43882;-75
2024/04/14 02:38:38;;;;;;;;;4.33;4.00;;;;;;;;5503779;25;44150;-75
2024/04/14 02:41:04;;;;;;;;;2.33;2.00;;;;;;;;5502971;25;43892;-75
2024/04/14 02:43:31;;;;;;;;;2.00;2.00;;;;;;;;5502616;25;43961;-75
2024/04/14 02:45:57;;;;;;;;;2.00;2.00;;;;;;;;5503369;25;43898;-75
2024/04/14 02:48:22;;;;;;;;;2.00;2.00;;;;;;;;5503104;25;43853;-75
2024/04/14 02:50:48;;;;;;;;;1.67;1.67;;;;;;;;5503540;25;43847;-76
2024/04/14 02:53:13;;;;;;;;;2.00;2.00;;;;;;;;5503659;25;43923;-75
2024/04/14 02:55:39;;;;;;;;;2.33;2.33;;;;;;;;5502789;25;43796;-76
2024/04/14 02:58:05;;;;;;;;;3.00;3.00;;;;;;;;5503394;25;43814;-76
2024/04/14 03:00:30;;;;;;;;;2.67;2.67;;;;;;;;5503595;25;43765;-76
2024/04/14 03:02:55;;;;;;;;;3.67;3.67;;;;;;;;5503384;25;43896;-75
2024/04/14 03:05:21;;;;;;;;;1.00;1.00;;;;;;;;5503529;25;44134;-75
2024/04/14 03:07:46;;;;;;;;;2.67;2.67;;;;;;;;5503496;25;43911;-75
2024/04/14 03:10:11;;;;;;;;;2.00;2.00;;;;;;;;5503242;25;44000;-76
2024/04/14 03:12:37;;;;;;;;;3.00;2.00;;;;;;;;5503498;25;43873;-75
2024/04/14 03:15:02;;;;;;;;;2.67;2.67;;;;;;;;5503398;25;43874;-75
2024/04/14 03:17:27;;;;;;;;;2.33;2.33;;;;;;;;5503357;25;43890;-76
2024/04/14 03:19:53;;;;;;;;;3.00;2.00;;;;;;;;5503221;25;43861;-75
2024/04/14 03:22:18;;;;;;;;;4.00;4.00;;;;;;;;5503448;25;43859;-75
2024/04/14 03:24:43;;;;;;;;;3.33;3.33;;;;;;;;5503084;25;44072;-75
2024/04/14 03:27:09;;;;;;;;;2.67;2.67;;;;;;;;5503278;25;44813;-75
2024/04/14 03:29:34;;;;;;;;;2.33;2.33;;;;;;;;5503082;25;44016;-75
2024/04/14 03:31:59;;;;;;;;;2.67;2.67;;;;;;;;5503600;25;43788;-76
2024/04/14 03:34:24;;;;;;;;;1.33;1.33;;;;;;;;5502877;25;43821;-75
2024/04/14 03:36:49;;;;;;;;;2.00;2.00;;;;;;;;5502914;25;45112;-76
2024/04/14 03:39:15;;;;;;;;;1.00;1.00;;;;;;;;5502934;25;43888;-75
2024/04/14 03:41:40;;;;;;;;;1.00;1.00;;;;;;;;5502952;25;43793;-75
2024/04/14 03:44:05;;;;;;;;;1.67;1.67;;;;;;;;5502560;25;43822;-75
2024/04/14 03:46:30;;;;;;;;;1.67;1.67;;;;;;;;5502732;25;44810;-75
2024/04/14 03:48:55;;;;;;;;;2.67;2.33;;;;;;;;5502785;25;43817;-75
2024/04/14 03:51:20;;;;;;;;;2.00;2.00;;;;;;;;5503354;25;43856;-75
2024/04/14 03:53:46;;;;;;;;;2.33;2.33;;;;;;;;5502221;25;43760;-75
2024/04/14 03:56:11;;;;;;;;;1.00;1.00;;;;;;;;5502637;25;45236;-75
2024/04/14 03:58:36;;;;;;;;;2.67;2.67;;;;;;;;5502688;25;43834;-76
2024/04/14 04:01:01;;;;;;;;;1.33;1.33;;;;;;;;5501226;25;43811;-75
2024/04/14 04:03:26;;;;;;;;;2.33;2.00;;;;;;;;5502837;25;44248;-75
2024/04/14 04:05:54;;;;;;;;;2.67;2.67;;;;;;;;5502788;25;43992;-75
2024/04/14 04:08:20;;;;;;;;;2.00;2.00;;;;;;;;5502691;25;43917;-75
2024/04/14 04:10:45;;;;;;;;;2.67;2.67;;;;;;;;5502886;25;43937;-75
2024/04/14 04:13:10;;;;;;;;;2.67;2.67;;;;;;;;5502425;25;43965;-75
2024/04/14 04:15:35;;;;;;;;;2.00;2.00;;;;;;;;5502535;25;44855;-75
2024/04/14 04:18:01;;;;;;;;;2.00;2.00;;;;;;;;5502598;25;43917;-75
2024/04/14 04:20:26;;;;;;;;;2.00;2.00;;;;;;;;5502605;25;43837;-75
2024/04/14 04:22:51;;;;;;;;;1.00;1.00;;;;;;;;5502136;25;44385;-75
2024/04/14 04:25:16;;;;;;;;;1.33;1.33;;;;;;;;5502237;25;43942;-75
2024/04/14 04:27:41;;;;;;;;;2.00;2.00;;;;;;;;5502464;25;43942;-75
2024/04/14 04:30:07;;;;;;;;;2.00;2.00;;;;;;;;5502882;25;43964;-75
2024/04/14 04:32:32;;;;;;;;;4.00;4.00;;;;;;;;5502372;25;43889;-76
2024/04/14 04:34:57;;;;;;;;;3.00;2.33;;;;;;;;5502398;25;44781;-76
2024/04/14 04:37:22;;;;;;;;;3.00;2.33;;;;;;;;5502560;25;43913;-75
2024/04/14 04:39:47;;;;;;;;;3.00;3.00;;;;;;;;5502096;25;43944;-75
2024/04/14 04:42:13;;;;;;;;;4.00;3.00;;;;;;;;5502079;25;43743;-76
2024/04/14 04:44:38;;;;;;;;;1.67;1.67;;;;;;;;5502079;25;44842;-75
2024/04/14 04:47:03;;;;;;;;;2.00;2.00;;;;;;;;5502034;25;43727;-75
2024/04/14 04:49:28;;;;;;;;;3.00;3.00;;;;;;;;5501876;25;43941;-76
2024/04/14 04:51:53;;;;;;;;;4.33;3.33;;;;;;;;5501811;25;43904;-75
2024/04/14 04:54:18;;;;;;;;;2.33;2.33;;;;;;;;5501855;25;43902;-74
2024/04/14 04:56:44;;;;;;;;;2.33;2.00;;;;;;;;5501627;25;43963;-76
2024/04/14 04:59:09;;;;;;;;;2.00;2.00;;;;;;;;5501834;25;43727;-76
2024/04/14 05:01:34;;;;;;;;;2.33;2.33;;;;;;;;5501379;25;44300;-76
2024/04/14 05:03:59;;;;;;;;;4.00;4.00;;;;;;;;5499648;25;44944;-76
2024/04/14 05:06:24;;;;;;;;;3.00;2.00;;;;;;;;5503787;25;43628;-76
2024/04/14 05:08:49;;;;;;;;;2.00;2.00;;;;;;;;5504972;25;44025;-75
2024/04/14 05:11:15;;;;;;;;;5.00;3.33;;;;;;;;5504669;25;43945;-75
2024/04/14 05:13:40;;;;;;;;;4.00;4.00;;;;;;;;5504690;25;45094;-75
2024/04/14 05:16:08;;;;;;;;;3.00;3.00;;;;;;;;5504759;25;43856;-76
2024/04/14 05:18:33;;;;;;;;;4.33;4.33;;;;;;;;5504641;25;43837;-75
2024/04/14 05:20:58;;;;;;;;;2.00;2.00;;;;;;;;5504687;25;44015;-75
2024/04/14 05:23:23;;;;;;;;;1.00;1.00;;;;;;;;5504516;25;43873;-76
2024/04/14 05:25:49;;;;;;;;;3.33;3.33;;;;;;;;5503925;25;43989;-76
2024/04/14 05:28:15;;;;;;;;;3.33;3.33;;;;;;;;5504479;25;44044;-76
2024/04/14 05:30:40;;;;;;;;;4.00;3.67;;;;;;;;5503978;25;43971;-76
2024/04/14 05:33:06;;;;;;;;;3.67;3.67;;;;;;;;5504266;25;44359;-76
2024/04/14 05:35:31;;;;;;;;;2.33;2.33;;;;;;;;5504044;25;43960;-76
2024/04/14 05:37:56;;;;;;;;;4.00;3.67;;;;;;;;5504173;25;43836;-76
2024/04/14 05:40:21;;;;;;;;;3.33;3.33;;;;;;;;5503808;25;43959;-76
2024/04/14 05:42:46;;;;;;;;;2.67;2.67;;;;;;;;5503952;25;44027;-75
2024/04/14 05:45:21;;;;;;;;;7.33;6.00;;;;;;;;5504023;25;43896;-75
2024/04/14 05:47:46;;;;;;;;;3.33;3.33;;;;;;;;5503995;25;43805;-75
2024/04/14 05:50:11;;;;;;;;;4.00;4.00;;;;;;;;5504163;25;43909;-75
2024/04/14 05:52:37;;;;;;;;;4.00;4.00;;;;;;;;5504016;25;44967;-75
2024/04/14 05:55:02;;;;;;;;;4.00;4.00;;;;;;;;5503978;25;43970;-75
2024/04/14 05:57:27;;;;;;;;;4.33;4.00;;;;;;;;5504162;25;43975;-75
2024/04/14 05:59:52;;;;;;;;;7.00;4.00;;;;;;;;5503732;25;44049;-74
2024/04/14 06:02:17;;;;;;;;;5.67;5.00;;;;;;;;5504090;25;43975;-75
2024/04/14 06:04:43;;;;;;;;;5.67;5.67;;;;;;;;5503952;25;43877;-75
2024/04/14 06:07:08;;;;;;;;;4.00;4.00;;;;;;;;5504382;25;43938;-75
2024/04/14 06:09:33;;;;;;;;;6.00;5.00;;;;;;;;5503671;25;43834;-75
2024/04/14 06:11:58;;;;;;;;;6.00;6.00;;;;;;;;5504028;25;44073;-75
2024/04/14 06:14:23;;;;;;;;;7.33;6.33;;;;;;;;5502207;25;44429;-75
2024/04/14 06:16:48;;;;;;;;;5.33;5.33;;;;;;;;5503839;25;43799;-75
2024/04/14 06:19:14;;;;;;;;;5.67;5.67;;;;;;;;5503309;25;43851;-75
2024/04/14 06:21:39;;;;;;;;;8.00;6.67;;;;;;;;5503853;25;43888;-75
2024/04/14 06:24:05;;;;;;;;;8.67;8.00;;;;;;;;5503383;25;43915;-75
2024/04/14 06:26:30;;;;;;;;;8.00;8.00;;;;;;;;5503872;25;43748;-74
2024/04/14 06:28:55;;;;;;;;;9.67;7.00;;;;;;;;5503527;25;43784;-75
2024/04/14 06:31:20;;;;;;;;;12.00;8.67;;;;;;;;5503878;25;44864;-74
2024/04/14 06:33:46;;;;;;;;;9.33;9.00;;;;;;;;5503750;25;43919;-75
2024/04/14 06:36:11;;;;;;;;;9.33;9.33;;;;;;;;5503892;25;44067;-75
2024/04/14 06:38:38;;;;;;;;;12.00;9.67;;;;;;;;5503942;25;44038;-76
2024/04/14 06:41:03;;;;;;;;;15.00;14.67;;;;;;;;5504062;25;44890;-75
2024/04/14 06:43:28;;;;;;;;;13.33;12.67;;;;;;;;5503337;25;43901;-76
2024/04/14 06:45:54;;;;;;;;;20.67;19.33;;;;;;;;5503672;25;44105;-75
2024/04/14 06:48:22;;;;;;;;;17.67;16.67;;;;;;;;5502873;25;43811;-75
2024/04/14 06:50:47;;;;;;;;;19.00;17.67;;;;;;;;5502956;25;44913;-75
2024/04/14 06:53:13;;;;;;;;;20.33;18.00;;;;;;;;5503170;25;43745;-75
2024/04/14 06:55:41;;;;;;;;;20.33;20.33;;;;;;;;5503243;25;43999;-75
2024/04/14 06:58:06;;;;;;;;;20.00;17.00;;;;;;;;5503034;25;43907;-75
2024/04/14 07:00:32;;;;;;;;;21.33;17.00;;;;;;;;5503236;25;43884;-75
2024/04/14 07:02:57;;;;;;;;;18.67;18.67;;;;;;;;5502651;25;44039;-75
2024/04/14 07:05:23;;;;;;;;;16.67;16.00;;;;;;;;5503649;25;43974;-75
2024/04/14 07:07:48;;;;;;;;;18.00;17.67;;;;;;;;5502909;25;43888;-75
2024/04/14 07:10:13;;;;;;;;;19.00;17.00;;;;;;;;5502673;25;44923;-75
2024/04/14 07:12:38;;;;;;;;;12.33;12.33;;;;;;;;5502815;25;43829;-75
2024/04/14 07:15:04;;;;;;;;;15.33;14.67;;;;;;;;5503352;25;43775;-75
2024/04/14 07:17:29;;;;;;;;;15.33;13.00;;;;;;;;5503045;25;43925;-76
2024/04/14 07:19:54;;;;;;;;;21.33;19.67;;;;;;;;5502597;25;45057;-74
2024/04/14 07:22:19;;;;;;;;;25.67;23.67;;;;;;;;5502892;25;43930;-75
2024/04/14 07:24:45;;;;;;;;;17.67;17.67;;;;;;;;5502529;25;44250;-75
2024/04/14 07:27:10;;;;;;;;;17.00;15.67;;;;;;;;5502848;25;43977;-75
2024/04/14 07:29:35;;;;;;;;;20.33;19.00;;;;;;;;5502054;25;44040;-75
2024/04/14 07:32:00;;;;;;;;;17.33;16.00;;;;;;;;5503249;25;43860;-75
2024/04/14 07:34:26;;;;;;;;;20.33;18.33;;;;;;;;5502985;25;43948;-75
2024/04/14 07:36:51;;;;;;;;;21.67;20.00;;;;;;;;5502942;25;43804;-75
2024/04/14 07:39:16;;;;;;;;;18.67;17.33;;;;;;;;5503164;25;44842;-75
2024/04/14 07:41:42;;;;;;;;;24.67;23.00;;;;;;;;5503224;25;43979;-75
2024/04/14 07:44:07;;;;;;;;;22.33;20.33;;;;;;;;5503058;25;44040;-75
2024/04/14 07:46:32;;;;;;;;;20.67;20.67;;;;;;;;5502272;25;43824;-75
2024/04/14 07:48:57;;;;;;;;;20.33;20.00;;;;;;;;5502470;25;43917;-75
2024/04/14 07:51:23;;;;;;;;;20.00;18.33;;;;;;;;5502510;25;43731;-75
2024/04/14 07:53:48;;;;;;;;;22.67;20.67;;;;;;;;5503102;25;43729;-75
2024/04/14 07:56:13;;;;;;;;;21.67;19.00;;;;;;;;5502055;25;43734;-75
2024/04/14 07:58:38;;;;;;;;;20.00;19.00;;;;;;;;5502433;25;45084;-76
2024/04/14 08:01:04;;;;;;;;;16.00;16.00;;;;;;;;5502696;25;43834;-75
2024/04/14 08:03:29;;;;;;;;;17.67;16.00;;;;;;;;5502644;25;43869;-76
2024/04/14 08:05:54;;;;;;;;;17.33;17.33;;;;;;;;5502621;25;44073;-75
2024/04/14 08:08:21;;;;;;;;;20.67;19.00;;;;;;;;5502304;25;45951;-76
2024/04/14 08:10:46;;;;;;;;;21.67;21.00;;;;;;;;5502624;25;44026;-75
2024/04/14 08:13:11;;;;;;;;;17.00;15.67;;;;;;;;5502689;25;44447;-75
2024/04/14 08:15:36;;;;;;;;;19.33;17.33;;;;;;;;5502158;25;43813;-75
2024/04/14 08:18:02;;;;;;;;;17.33;17.33;;;;;;;;5502179;25;43823;-75
2024/04/14 08:20:27;;;;;;;;;16.67;16.00;;;;;;;;5502261;25;43860;-75
2024/04/14 08:22:52;;;;;;;;;18.00;18.00;;;;;;;;5501998;25;43856;-75
2024/04/14 08:25:17;;;;;;;;;17.33;17.33;;;;;;;;5501453;25;43901;-75
2024/04/14 08:27:43;;;;;;;;;20.33;18.00;;;;;;;;5501376;25;43964;-75
2024/04/14 08:30:08;;;;;;;;;19.67;16.00;;;;;;;;5501806;25;44028;-75
2024/04/14 08:32:34;;;;;;;;;19.00;19.00;;;;;;;;5503139;25;43976;-76
2024/04/14 08:34:59;;;;;;;;;18.00;17.33;;;;;;;;5502236;25;43904;-76
2024/04/14 08:37:25;;;;;;;;;21.33;19.67;;;;;;;;5501435;25;43905;-75
2024/04/14 08:39:50;;;;;;;;;18.67;18.33;;;;;;;;5499839;25;43861;-76
2024/04/14 08:42:17;;;;;;;;;17.67;15.00;;;;;;;;5502514;25;43970;-75
2024/04/14 08:44:43;;;;;;;;;18.67;17.67;;;;;;;;5501522;25;43911;-75
2024/04/14 08:47:09;;;;;;;;;18.33;17.33;;;;;;;;5501417;25;43814;-75
2024/04/14 08:49:36;;;;;;;;;15.67;15.33;;;;;;;;5501525;25;43944;-75
2024/04/14 08:52:04;;;;;;;;;18.00;18.00;;;;;;;;5502106;25;43871;-76
2024/04/14 08:54:29;;;;;;;;;15.33;14.33;;;;;;;;5501334;25;44042;-75
2024/04/14 08:56:56;;;;;;;;;14.33;14.33;;;;;;;;5501687;25;43837;-76
2024/04/14 08:59:21;;;;;;;;;15.67;15.33;;;;;;;;5501776;25;43889;-76
2024/04/14 09:01:46;;;;;;;;;17.00;15.33;;;;;;;;5502069;25;43746;-75
2024/04/14 09:04:13;;;;;;;;;19.00;18.33;;;;;;;;5501615;25;43863;-76
2024/04/14 09:06:39;;;;;;;;;20.33;18.67;;;;;;;;5501379;25;44718;-76
2024/04/14 09:09:05;;;;;;;;;21.33;19.33;;;;;;;;5501440;25;43901;-75
2024/04/14 09:11:30;;;;;;;;;17.00;16.00;;;;;;;;5501204;25;43641;-75
2024/04/14 09:13:55;;;;;;;;;18.33;17.00;;;;;;;;5510531;25;44008;-76
2024/04/14 09:16:20;;;;;;;;;15.67;15.00;;;;;;;;5509552;25;43932;-75
2024/04/14 09:18:45;;;;;;;;;16.33;16.33;;;;;;;;5520745;25;43842;-75
2024/04/14 09:21:11;;;;;;;;;17.00;16.67;;;;;;;;5527261;25;43836;-75
2024/04/14 09:23:36;;;;;;;;;16.67;16.33;;;;;;;;5534651;25;43844;-75
2024/04/14 09:26:02;;;;;;;;;14.67;14.67;;;;;;;;5535370;25;44822;-75
2024/04/14 09:28:27;;;;;;;;;17.00;16.67;;;;;;;;5521892;25;43847;-75
2024/04/14 09:30:52;;;;;;;;;9.67;9.67;;;;;;;;5502090;25;44393;-75
2024/04/14 09:33:18;;;;;;;;;16.33;16.33;;;;;;;;5509039;25;44049;-75
2024/04/14 09:35:47;;;;;;;;;20.00;19.00;;;;;;;;5502923;25;45096;-75
2024/04/14 09:38:16;;;;;;;;;18.33;17.33;;;;;;;;5500379;25;43975;-76
2024/04/14 09:40:42;;;;;;;;;20.33;20.00;;;;;;;;5500307;25;44005;-75
2024/04/14 09:43:09;;;;;;;;;19.00;18.33;;;;;;;;5500393;25;43868;-76
2024/04/14 09:45:34;;;;;;;;;21.00;19.67;;;;;;;;5499730;25;45034;-77
2024/04/14 09:48:00;;;;;;;;;23.33;22.33;;;;;;;;5499976;25;44138;-77
2024/04/14 09:50:25;;;;;;;;;17.00;17.00;;;;;;;;5499783;25;43978;-76
2024/04/14 09:52:52;;;;;;;;;17.33;17.33;;;;;;;;5503258;25;43870;-76
2024/04/14 09:55:17;;;;;;;;;16.00;15.00;;;;;;;;5502999;25;44754;-76
2024/04/14 09:57:43;;;;;;;;;17.00;15.33;;;;;;;;5503715;25;43641;-76
2024/04/14 10:00:08;;;;;;;;;20.67;20.00;;;;;;;;5501091;25;43705;-77
2024/04/14 10:02:39;;;;;;;;;19.33;19.33;;;;;;;;5501729;25;44850;-76
2024/04/14 10:05:08;;;;;;;;;22.33;21.33;;;;;;;;5503978;25;43909;-76
2024/04/14 10:07:33;;;;;;;;;21.67;21.67;;;;;;;;5503736;25;43861;-76
2024/04/14 10:09:59;;;;;;;;;24.33;23.00;;;;;;;;5503729;25;44209;-77
2024/04/14 10:12:24;;;;;;;;;22.00;21.33;;;;;;;;5503861;25;43926;-76
2024/04/14 10:14:50;;;;;;;;;21.00;21.00;;;;;;;;5503943;25;43964;-76
2024/04/14 10:17:18;;;;;;;;;23.00;20.00;;;;;;;;5503711;25;43928;-77
2024/04/14 10:20:10;;;;;;;;;21.33;21.33;;;;;;;;5503837;25;43776;-75
2024/04/14 10:22:36;;;;;;;;;19.00;19.00;;;;;;;;5497827;25;44151;-75
2024/04/14 10:25:01;;;;;;;;;21.33;20.67;;;;;;;;5503099;25;44918;-75
2024/04/14 10:27:30;;;;;;;;;17.00;16.00;;;;;;;;5503765;25;44012;-76
2024/04/14 10:29:56;;;;;;;;;17.67;16.67;;;;;;;;5503692;25;43979;-76
2024/04/14 10:32:22;;;;;;;;;17.67;17.67;;;;;;;;5503286;25;44123;-76
2024/04/14 10:34:47;;;;;;;;;17.00;16.33;;;;;;;;5503554;25;44722;-76
2024/04/14 10:37:21;;;;;;;;;17.00;16.33;;;;;;;;5503338;25;43842;-76
2024/04/14 10:39:46;;;;;;;;;19.33;19.33;;;;;;;;5503481;25;44046;-76
2024/04/14 10:42:11;;;;;;;;;14.67;14.67;;;;;;;;5503309;25;44209;-76
2024/04/14 10:44:41;;;;;;;;;17.00;16.00;;;;;;;;5503486;25;44421;-76
2024/04/14 10:47:07;;;;;;;;;13.67;12.67;;;;;;;;5503640;25;43943;-76
2024/04/14 10:49:32;;;;;;;;;14.67;14.67;;;;;;;;5503118;25;43891;-76
2024/04/14 10:51:58;;;;;;;;;12.67;12.67;;;;;;;;5510207;25;44083;-76
2024/04/14 10:54:23;;;;;;;;;16.00;15.67;;;;;;;;5522357;25;44718;-76
2024/04/14 10:56:52;;;;;;;;;15.00;15.00;;;;;;;;5502157;25;43844;-75
2024/04/14 10:59:17;;;;;;;;;13.33;13.33;;;;;;;;5503631;25;43900;-76
2024/04/14 11:01:43;;;;;;;;;12.00;11.67;;;;;;;;5502595;25;43905;-76
2024/04/14 11:04:14;;;;;;;;;13.67;13.67;;;;;;;;5501493;25;43848;-76
2024/04/14 11:06:39;;;;;;;;;13.00;13.00;;;;;;;;5519552;25;43815;-76
2024/04/14 11:09:04;;;;;;;;;15.67;14.67;;;;;;;;5541178;25;43773;-76
2024/04/14 11:11:29;;;;;;;;;14.00;13.33;;;;;;;;5540554;25;43923;-76
2024/04/14 11:13:55;;;;;;;;;13.33;13.33;;;;;;;;5536575;25;43983;-76
2024/04/14 11:16:20;;;;;;;;;16.67;14.33;;;;;;;;5503335;25;43857;-75
2024/04/14 11:18:47;;;;;;;;;13.67;13.67;;;;;;;;5503300;25;44067;-76
2024/04/14 11:21:19;;;;;;;;;15.33;15.33;;;;;;;;5503320;25;43909;-76
2024/04/14 11:23:46;;;;;;;;;12.67;12.67;;;;;;;;5503248;25;44773;-77
2024/04/14 11:26:11;;;;;;;;;13.33;12.67;;;;;;;;5502834;25;43957;-78
2024/04/14 11:28:38;;;;;;;;;17.33;15.67;;;;;;;;5503507;25;44053;-77
2024/04/14 11:31:03;;;;;;;;;16.00;16.00;;;;;;;;5503230;25;43863;-76
2024/04/14 11:33:29;;;;;;;;;16.00;14.33;;;;;;;;5502774;25;44900;-77
2024/04/14 11:36:00;;;;;;;;;16.33;16.00;;;;;;;;5483220;25;43864;-75
2024/04/14 11:38:26;;;;;;;;;16.00;15.00;;;;;;;;5466480;26;43968;-76
2024/04/14 11:40:52;;;;;;;;;13.00;12.33;;;;;;;;5466031;25;43946;-76
2024/04/14 11:43:17;;;;;;;;;10.00;10.00;;;;;;;;5466005;25;43851;-77
2024/04/14 11:45:49;;;;;;;;;13.67;13.67;;;;;;;;5465874;26;43844;-76
2024/04/14 11:48:14;;;;;;;;;16.67;14.33;;;;;;;;5466106;25;43968;-77
2024/04/14 11:50:40;;;;;;;;;14.00;12.00;;;;;;;;5464047;26;45974;-77
2024/04/14 11:53:05;;;;;;;;;12.00;12.00;;;;;;;;5466017;26;45184;-77
2024/04/14 11:55:30;;;;;;;;;14.00;14.00;;;;;;;;5465965;26;43909;-77
2024/04/14 11:57:55;;;;;;;;;15.67;14.33;;;;;;;;5489193;25;43892;-76
2024/04/14 12:00:20;;;;;;;;;16.00;14.33;;;;;;;;5496801;25;43920;-75
2024/04/14 12:02:46;;;;;;;;;15.00;15.00;;;;;;;;5501400;25;43988;-76
2024/04/14 12:05:11;;;;;;;;;16.33;15.00;;;;;;;;5499182;25;44626;-76
2024/04/14 12:07:36;;;;;;;;;17.00;15.00;;;;;;;;5502619;25;44039;-77
2024/04/14 12:10:02;;;;;;;;;16.00;15.33;;;;;;;;5502231;25;44499;-76
2024/04/14 12:12:27;;;;;;;;;17.00;15.67;;;;;;;;5502064;25;43829;-76
2024/04/14 12:14:52;;;;;;;;;20.33;18.67;;;;;;;;5501513;25;43903;-78
2024/04/14 12:17:17;;;;;;;;;14.00;13.33;;;;;;;;5502552;25;44106;-77
2024/04/14 12:19:42;;;;;;;;;15.00;15.00;;;;;;;;5501684;25;43872;-76
2024/04/14 12:22:07;;;;;;;;;18.67;17.33;;;;;;;;5501905;25;44166;-76
2024/04/14 12:24:33;;;;;;;;;16.00;15.33;;;;;;;;5502026;25;43897;-76
2024/04/14 12:26:58;;;;;;;;;16.00;15.33;;;;;;;;5502302;25;43707;-77
2024/04/14 12:29:23;;;;;;;;;13.00;12.67;;;;;;;;5503807;25;43919;-77
2024/04/14 12:31:49;;;;;;;;;14.00;14.00;;;;;;;;5503229;25;45234;-77
2024/04/14 12:34:14;;;;;;;;;13.67;13.67;;;;;;;;5501705;25;43900;-76
2024/04/14 12:36:40;;;;;;;;;14.33;13.33;;;;;;;;5501731;25;43834;-76
2024/04/14 12:39:06;;;;;;;;;16.00;15.33;;;;;;;;5501757;25;44020;-76
2024/04/14 12:41:31;;;;;;;;;13.33;13.33;;;;;;;;5502078;25;44715;-76
2024/04/14 12:43:56;;;;;;;;;15.00;15.00;;;;;;;;5501891;25;43792;-76
2024/04/14 12:46:21;;;;;;;;;15.67;15.67;;;;;;;;5501977;25;44021;-76
2024/04/14 12:48:47;;;;;;;;;17.33;16.00;;;;;;;;5501056;25;44139;-76
2024/04/14 12:51:12;;;;;;;;;13.00;13.00;;;;;;;;5501306;25;44020;-76
2024/04/14 12:53:37;;;;;;;;;15.67;15.00;;;;;;;;5501586;25;43725;-77
2024/04/14 12:56:03;;;;;;;;;15.00;13.67;;;;;;;;5500862;25;43928;-76
2024/04/14 12:58:28;;;;;;;;;15.33;13.67;;;;;;;;5500759;25;44033;-77
2024/04/14 13:00:56;;;;;;;;;14.67;13.33;;;;;;;;5501119;25;44141;-76
2024/04/14 13:03:21;;;;;;;;;12.33;12.33;;;;;;;;5501372;25;43923;-77
2024/04/14 13:05:50;;;;;;;;;14.00;12.33;;;;;;;;5501692;25;43827;-75
2024/04/14 13:08:15;;;;;;;;;10.33;9.67;;;;;;;;5501338;25;43822;-76
2024/04/14 13:10:40;;;;;;;;;14.00;13.67;;;;;;;;5504494;25;43829;-77
2024/04/14 13:13:06;;;;;;;;;13.00;13.00;;;;;;;;5500281;25;43708;-77
2024/04/14 13:15:31;;;;;;;;;13.00;12.67;;;;;;;;5501448;25;44028;-77
2024/04/14 13:17:56;;;;;;;;;22.67;21.67;;;;;;;;5501241;25;43871;-77
2024/04/14 13:20:21;;;;;;;;;52.00;42.00;;;;;;;;5505594;25;44826;-75
2024/04/14 13:22:47;;;;;;;;;24.00;21.33;;;;;;;;5514336;25;43752;-74
2024/04/14 13:25:12;;;;;;;;;19.67;19.33;;;;;;;;5501015;25;44013;-74
2024/04/14 13:27:37;;;;;;;;;14.00;13.67;;;;;;;;5498438;25;44142;-75
2024/04/14 13:30:03;;;;;;;;;13.67;13.33;;;;;;;;5504010;25;44609;-76
2024/04/14 13:32:28;;;;;;;;;12.00;12.00;;;;;;;;5504344;25;43897;-76
2024/04/14 13:34:53;;;;;;;;;13.00;13.00;;;;;;;;5504192;25;43967;-77
2024/04/14 13:37:18;;;;;;;;;12.33;12.33;;;;;;;;5503723;25;43822;-77
2024/04/14 13:39:45;;;;;;;;;13.33;12.67;;;;;;;;5503928;25;43983;-77
2024/04/14 13:42:11;;;;;;;;;11.33;11.00;;;;;;;;5503936;25;43870;-77
2024/04/14 13:44:36;;;;;;;;;12.67;12.00;;;;;;;;5504284;25;43987;-77
2024/04/14 13:47:01;;;;;;;;;9.67;9.00;;;;;;;;5503120;25;44065;-76
2024/04/14 13:49:26;;;;;;;;;12.67;11.33;;;;;;;;5502958;25;43946;-76
2024/04/14 13:51:51;;;;;;;;;11.00;11.00;;;;;;;;5503862;25;44070;-76
2024/04/14 13:54:17;;;;;;;;;10.67;10.67;;;;;;;;5503543;25;43803;-77
2024/04/14 13:56:42;;;;;;;;;11.67;11.33;;;;;;;;5503978;25;44267;-77
2024/04/14 13:59:07;;;;;;;;;11.50;11.00;;;;;;;;5503696;25;44204;-76
2024/04/14 14:01:32;;;;;;;;;10.00;10.00;;;;;;;;5503887;25;43967;-76
2024/04/14 14:03:58;;;;;;;;;10.00;10.00;;;;;;;;5503811;25;43901;-77
2024/04/14 14:06:23;;;;;;;;;9.67;9.67;;;;;;;;5504097;25;43845;-76
2024/04/14 14:08:48;;;;;;;;;11.00;11.00;;;;;;;;5503818;25;44219;-77
2024/04/14 14:11:13;;;;;;;;;11.00;11.00;;;;;;;;5503548;25;43755;-76
2024/04/14 14:13:38;;;;;;;;;12.00;12.00;;;;;;;;5503708;25;43662;-77
2024/04/14 14:16:04;;;;;;;;;12.00;12.00;;;;;;;;5503679;25;43697;-77
2024/04/14 14:18:29;;;;;;;;;10.00;9.67;;;;;;;;5503379;25;43907;-77